Irini — SYZA — position and weather

sailwx.info

Track history (hours):
 
Tides and Currents Weather Stations Pressure Air Temp Water Temp Dewpoint Dewpoint Depression Visibility Wind Speed Wind Dir Waves Ship Positions

Irini

Last reported at 2014-Dec-15 19:11 UTC. Time now 2014-Dec-18 21:40 UTC.
Position N 38°02' E 024°38'.

Length 137 m; draft 7.5 m.

Type: Ship (hazmat cat A). MMSI: 240052000.

Date/timePositionNaut miles runAvg speedWind from/ knotsBaromVisibWave heightAir tempDewpointWater temp
2014-Dec-15 19:11N 38°02' E 024°38'610.4
2014-Dec-15 18:33N 37°56' E 024°34'1010.1
2014-Dec-15 17:33N 37°49' E 024°25'1110.5
2014-Dec-15 16:32N 37°42' E 024°15'1010.2
2014-Dec-15 15:33N 37°36' E 024°05'1110.6
2014-Dec-15 14:31N 37°37' E 023°51'1010.0
2014-Dec-15 13:33N 37°42' E 023°41'1110.9
2014-Dec-15 12:33N 37°53' E 023°37'9 8.5
2014-Dec-15 11:33N 38°01' E 023°32'2 1.8
2014-Dec-15 10:33N 38°02' E 023°31'0 0.2
2014-Dec-15 09:29N 38°02' E 023°31'0 0.0
2014-Dec-15 08:32N 38°02' E 023°31'0 0.0
2014-Dec-15 07:32N 38°02' E 023°31'0 0.0
2014-Dec-15 06:32N 38°02' E 023°31'0 0.0
2014-Dec-15 05:20N 38°02' E 023°31'0 0.0
2014-Dec-15 04:32N 38°02' E 023°31'0 0.0
2014-Dec-15 03:32N 38°02' E 023°31'0 0.0
2014-Dec-15 02:32N 38°02' E 023°31'0 0.0
2014-Dec-15 01:32N 38°02' E 023°31'0 0.0
2014-Dec-15 00:32N 38°02' E 023°31'0 0.0
2014-Dec-14 23:32N 38°02' E 023°31'0 0.0
2014-Dec-14 22:32N 38°02' E 023°31'0 0.0
2014-Dec-14 21:23N 38°02' E 023°31'0 0.0
2014-Dec-14 20:32N 38°02' E 023°31'0 0.0
2014-Dec-14 19:32N 38°02' E 023°31'0 0.0
2014-Dec-14 18:32N 38°02' E 023°31'0 0.0
2014-Dec-14 17:32N 38°02' E 023°31'0 0.0
2014-Dec-14 16:29N 38°02' E 023°31'0 0.0
2014-Dec-14 15:32N 38°02' E 023°31'0 0.0
2014-Dec-14 14:29N 38°02' E 023°31'0 0.0
2014-Dec-14 13:32N 38°02' E 023°31'0 0.0
2014-Dec-14 12:32N 38°02' E 023°31'0 0.0
2014-Dec-14 11:32N 38°02' E 023°31'0 0.2
2014-Dec-14 10:33N 38°02' E 023°31'4 0.2
2014-Dec-13 15:13N 38°02' E 023°36'3 4.3
2014-Dec-13 14:34N 37°60' E 023°33'9 9.0
2014-Dec-13 13:33N 37°52' E 023°38'1111.3
2014-Dec-13 12:33N 37°41' E 023°44'1311.3
2014-Dec-13 11:25N 37°37' E 023°60'2612.1
2014-Dec-13 09:15N 37°51' E 024°28'3211.8
2014-Dec-13 06:34N 38°22' E 024°40'  
2014-Dec-10 15:34N 37°55' E 024°34'9 8.7
2014-Dec-10 14:33N 37°49' E 024°26'11 9.8
2014-Dec-10 13:23N 37°42' E 024°15'8 9.6
2014-Dec-10 12:33N 37°37' E 024°07'10 9.8
2014-Dec-10 11:34N 37°36' E 023°55'1010.4
2014-Dec-10 10:33N 37°40' E 023°42'1111.2
2014-Dec-10 09:33N 37°50' E 023°37'9 9.1
2014-Dec-10 08:34N 37°59' E 023°33'3 2.6
2014-Dec-10 07:33N 38°01' E 023°32'1 0.9
2014-Dec-10 06:32N 38°02' E 023°31'0 0.0
2014-Dec-10 05:32N 38°02' E 023°31'0 0.0
2014-Dec-10 04:32N 38°02' E 023°31'0 0.0
2014-Dec-10 03:32N 38°02' E 023°31'0 0.0
2014-Dec-10 02:32N 38°02' E 023°31'0 0.0
2014-Dec-10 01:26N 38°02' E 023°31'0 0.0
2014-Dec-10 00:14N 38°02' E 023°31'0 0.0
2014-Dec-09 23:20N 38°02' E 023°31'0 0.0
2014-Dec-09 22:32N 38°02' E 023°31'0 0.0
2014-Dec-09 21:29N 38°02' E 023°31'0 0.0
2014-Dec-09 20:32N 38°02' E 023°31'0 0.0
2014-Dec-09 19:26N 38°02' E 023°31'0 0.0
2014-Dec-09 18:32N 38°02' E 023°31'0 0.0
2014-Dec-09 17:32N 38°02' E 023°31'0 0.0
2014-Dec-09 16:32N 38°02' E 023°31'0 0.0
2014-Dec-09 15:26N 38°02' E 023°31'0 0.0
2014-Dec-09 14:32N 38°02' E 023°31'0 0.0
2014-Dec-09 13:32N 38°02' E 023°31'0 0.0
2014-Dec-09 12:32N 38°02' E 023°31'0 0.0
2014-Dec-09 11:32N 38°02' E 023°31'1 1.0
2014-Dec-09 10:31N 38°01' E 023°32'0 0.0
2014-Dec-09 09:31N 38°01' E 023°32'3 0.1
2014-Dec-08 06:34N 38°01' E 023°35'6 6.3
2014-Dec-08 05:33N 37°55' E 023°35'2 1.5
2014-Dec-08 04:31N 37°54' E 023°33'0 0.0
2014-Dec-08 03:31N 37°54' E 023°33'0 0.0
2014-Dec-08 02:31N 37°54' E 023°33'0 0.0
2014-Dec-08 01:31N 37°54' E 023°34'0 0.0
2014-Dec-08 00:31N 37°54' E 023°33'0 0.0
2014-Dec-07 23:31N 37°54' E 023°34'0 0.0
2014-Dec-07 22:31N 37°54' E 023°33'0 0.0
2014-Dec-07 21:31N 37°54' E 023°33'4 3.8
2014-Dec-07 20:33N 37°52' E 023°37'1111.4
2014-Dec-07 19:33N 37°42' E 023°45'1211.4
2014-Dec-07 18:32N 37°34' E 023°55'1211.2
2014-Dec-07 17:28N 37°26' E 024°07'1011.5
2014-Dec-07 16:33N 37°19' E 024°17'1111.2
2014-Dec-07 15:33N 37°14' E 024°29'1111.1
2014-Dec-07 14:33N 37°07' E 024°41'1111.3
2014-Dec-07 13:33N 36°60' E 024°51'1110.9
2014-Dec-07 12:33N 36°54' E 025°02'1110.8
2014-Dec-07 11:33N 36°50' E 025°15'1111.0
2014-Dec-07 10:33N 36°47' E 025°28'1110.9
2014-Dec-07 09:33N 36°45' E 025°42'1110.9
2014-Dec-07 08:33N 36°44' E 025°55'1111.3
2014-Dec-07 07:33N 36°42' E 026°09'1111.0
2014-Dec-07 06:33N 36°41' E 026°23'1110.9
2014-Dec-07 05:33N 36°38' E 026°36'30711.4
2014-Dec-06 02:31N 34°41' E 032°25'1011.0
2014-Dec-06 01:33N 34°37' E 032°37'1110.9
2014-Dec-06 00:33N 34°33' E 032°49'1110.8
2014-Dec-05 23:33N 34°31' E 033°02'1211.6
2014-Dec-05 22:33N 34°37' E 033°14'1111.5
2014-Dec-05 21:33N 34°42' E 033°27'  
Track history (hours):
 
Tides and Currents Weather Stations Pressure Air Temp Water Temp Dewpoint Dewpoint Depression Visibility Wind Speed Wind Dir Waves Ship Positions

Irini

Last reported at 2014-Dec-15 19:11 UTC. Time now 2014-Dec-18 21:40 UTC.
Position N 38°02' E 024°38'.

Length 137 m; draft 7.5 m.

Type: Ship (hazmat cat A). MMSI: 240052000.

Date/timePositionNaut miles runAvg speedWind from/ knotsBaromVisibWave heightAir tempDewpointWater temp
2014-Dec-15 19:11N 38°02' E 024°38'610.4
2014-Dec-15 18:33N 37°56' E 024°34'1010.1
2014-Dec-15 17:33N 37°49' E 024°25'1110.5
2014-Dec-15 16:32N 37°42' E 024°15'1010.2
2014-Dec-15 15:33N 37°36' E 024°05'1110.6
2014-Dec-15 14:31N 37°37' E 023°51'1010.0
2014-Dec-15 13:33N 37°42' E 023°41'1110.9
2014-Dec-15 12:33N 37°53' E 023°37'9 8.5
2014-Dec-15 11:33N 38°01' E 023°32'2 1.8
2014-Dec-15 10:33N 38°02' E 023°31'0 0.2
2014-Dec-15 09:29N 38°02' E 023°31'0 0.0
2014-Dec-15 08:32N 38°02' E 023°31'0 0.0
2014-Dec-15 07:32N 38°02' E 023°31'0 0.0
2014-Dec-15 06:32N 38°02' E 023°31'0 0.0
2014-Dec-15 05:20N 38°02' E 023°31'0 0.0
2014-Dec-15 04:32N 38°02' E 023°31'0 0.0
2014-Dec-15 03:32N 38°02' E 023°31'0 0.0
2014-Dec-15 02:32N 38°02' E 023°31'0 0.0
2014-Dec-15 01:32N 38°02' E 023°31'0 0.0
2014-Dec-15 00:32N 38°02' E 023°31'0 0.0
2014-Dec-14 23:32N 38°02' E 023°31'0 0.0
2014-Dec-14 22:32N 38°02' E 023°31'0 0.0
2014-Dec-14 21:23N 38°02' E 023°31'0 0.0
2014-Dec-14 20:32N 38°02' E 023°31'0 0.0
2014-Dec-14 19:32N 38°02' E 023°31'0 0.0
2014-Dec-14 18:32N 38°02' E 023°31'0 0.0
2014-Dec-14 17:32N 38°02' E 023°31'0 0.0
2014-Dec-14 16:29N 38°02' E 023°31'0 0.0
2014-Dec-14 15:32N 38°02' E 023°31'0 0.0
2014-Dec-14 14:29N 38°02' E 023°31'0 0.0
2014-Dec-14 13:32N 38°02' E 023°31'0 0.0
2014-Dec-14 12:32N 38°02' E 023°31'0 0.0
2014-Dec-14 11:32N 38°02' E 023°31'0 0.2
2014-Dec-14 10:33N 38°02' E 023°31'4 0.2
2014-Dec-13 15:13N 38°02' E 023°36'3 4.3
2014-Dec-13 14:34N 37°60' E 023°33'9 9.0
2014-Dec-13 13:33N 37°52' E 023°38'1111.3
2014-Dec-13 12:33N 37°41' E 023°44'1311.3
2014-Dec-13 11:25N 37°37' E 023°60'2612.1
2014-Dec-13 09:15N 37°51' E 024°28'3211.8
2014-Dec-13 06:34N 38°22' E 024°40'  
2014-Dec-10 15:34N 37°55' E 024°34'9 8.7
2014-Dec-10 14:33N 37°49' E 024°26'11 9.8
2014-Dec-10 13:23N 37°42' E 024°15'8 9.6
2014-Dec-10 12:33N 37°37' E 024°07'10 9.8
2014-Dec-10 11:34N 37°36' E 023°55'1010.4
2014-Dec-10 10:33N 37°40' E 023°42'1111.2
2014-Dec-10 09:33N 37°50' E 023°37'9 9.1
2014-Dec-10 08:34N 37°59' E 023°33'3 2.6
2014-Dec-10 07:33N 38°01' E 023°32'1 0.9
2014-Dec-10 06:32N 38°02' E 023°31'0 0.0
2014-Dec-10 05:32N 38°02' E 023°31'0 0.0
2014-Dec-10 04:32N 38°02' E 023°31'0 0.0
2014-Dec-10 03:32N 38°02' E 023°31'0 0.0
2014-Dec-10 02:32N 38°02' E 023°31'0 0.0
2014-Dec-10 01:26N 38°02' E 023°31'0 0.0
2014-Dec-10 00:14N 38°02' E 023°31'0 0.0
2014-Dec-09 23:20N 38°02' E 023°31'0 0.0
2014-Dec-09 22:32N 38°02' E 023°31'0 0.0
2014-Dec-09 21:29N 38°02' E 023°31'0 0.0
2014-Dec-09 20:32N 38°02' E 023°31'0 0.0
2014-Dec-09 19:26N 38°02' E 023°31'0 0.0
2014-Dec-09 18:32N 38°02' E 023°31'0 0.0
2014-Dec-09 17:32N 38°02' E 023°31'0 0.0
2014-Dec-09 16:32N 38°02' E 023°31'0 0.0
2014-Dec-09 15:26N 38°02' E 023°31'0 0.0
2014-Dec-09 14:32N 38°02' E 023°31'0 0.0
2014-Dec-09 13:32N 38°02' E 023°31'0 0.0
2014-Dec-09 12:32N 38°02' E 023°31'0 0.0
2014-Dec-09 11:32N 38°02' E 023°31'1 1.0
2014-Dec-09 10:31N 38°01' E 023°32'0 0.0
2014-Dec-09 09:31N 38°01' E 023°32'3 0.1
2014-Dec-08 06:34N 38°01' E 023°35'6 6.3
2014-Dec-08 05:33N 37°55' E 023°35'2 1.5
2014-Dec-08 04:31N 37°54' E 023°33'0 0.0
2014-Dec-08 03:31N 37°54' E 023°33'0 0.0
2014-Dec-08 02:31N 37°54' E 023°33'0 0.0
2014-Dec-08 01:31N 37°54' E 023°34'0 0.0
2014-Dec-08 00:31N 37°54' E 023°33'0 0.0
2014-Dec-07 23:31N 37°54' E 023°34'0 0.0
2014-Dec-07 22:31N 37°54' E 023°33'0 0.0
2014-Dec-07 21:31N 37°54' E 023°33'4 3.8
2014-Dec-07 20:33N 37°52' E 023°37'1111.4
2014-Dec-07 19:33N 37°42' E 023°45'1211.4
2014-Dec-07 18:32N 37°34' E 023°55'1211.2
2014-Dec-07 17:28N 37°26' E 024°07'1011.5
2014-Dec-07 16:33N 37°19' E 024°17'1111.2
2014-Dec-07 15:33N 37°14' E 024°29'1111.1
2014-Dec-07 14:33N 37°07' E 024°41'1111.3
2014-Dec-07 13:33N 36°60' E 024°51'1110.9
2014-Dec-07 12:33N 36°54' E 025°02'1110.8
2014-Dec-07 11:33N 36°50' E 025°15'1111.0
2014-Dec-07 10:33N 36°47' E 025°28'1110.9
2014-Dec-07 09:33N 36°45' E 025°42'1110.9
2014-Dec-07 08:33N 36°44' E 025°55'1111.3
2014-Dec-07 07:33N 36°42' E 026°09'1111.0
2014-Dec-07 06:33N 36°41' E 026°23'1110.9
2014-Dec-07 05:33N 36°38' E 026°36'30711.4
2014-Dec-06 02:31N 34°41' E 032°25'1011.0
2014-Dec-06 01:33N 34°37' E 032°37'1110.9
2014-Dec-06 00:33N 34°33' E 032°49'1110.8
2014-Dec-05 23:33N 34°31' E 033°02'1211.6
2014-Dec-05 22:33N 34°37' E 033°14'1111.5
2014-Dec-05 21:33N 34°42' E 033°27'  

Dump ship's entire track history